»·PEaware :: N335AK KBUR-KLAS

N335AK :: KBUR-KLAS

FLIGHT INFORMATION

Flight Status: Arrived
Operator: Privately registered:
United States
More flights under this callsign
Pilot: Gabor H. (24209)
Aircraft: Unknown
(EPIC)
More flights by this aircraft type
Origin: KBUR Bob Hope-Burbank
United States
Destination: KLAS McCarran Intl
United States
More flights between these airports :: More routes between these airports
Route: +VNY3 DAG CRESO4
File this flight plan on PilotEdge
Remarks:
Altitude:
(Current/Filed)
21,000ft
Speed:
(Current/Filed)
325kts
Departed: 24-Nov-20 12:45 PM
Arrived: 24-Nov-20 01:34 PM
Distance/Time
Traveled:
193nm/0:49
Distance/Time
To Go:
Arrived

Flight Plot

Page will automatically refresh every two minutes.

Flight plan parsing failed; only flown route is shown


Map Options




Map Legend


Flown Route
Filed Route
Departure Airport
Arrival Airport
Navaid (VOR, NDB)
Fix

Horizontal Profiles

Position Reports

Time Latitude Longitude Heading Altitude Ground
Speed
24-Nov-20 12:26 34.200691 -118.358925 263 779ft 0kts
24-Nov-20 12:27 34.200691 -118.358925 263 779ft 0kts
24-Nov-20 12:29 34.200691 -118.358925 263 779ft 0kts
24-Nov-20 12:30 34.200691 -118.358925 263 779ft 0kts
24-Nov-20 12:31 34.200691 -118.358925 263 779ft 0kts
24-Nov-20 12:32 34.200691 -118.358925 263 779ft 0kts
24-Nov-20 12:33 34.200691 -118.358925 263 779ft 0kts
24-Nov-20 12:34 34.200691 -118.358925 263 779ft 0kts
24-Nov-20 12:35 34.200691 -118.358925 263 779ft 0kts
24-Nov-20 12:36 34.200691 -118.358925 263 779ft 0kts
24-Nov-20 12:37 34.200691 -118.358925 263 779ft 0kts
24-Nov-20 12:38 34.200503 -118.359244 178 779ft 6kts
24-Nov-20 12:39 34.198926 -118.358239 251 779ft 11kts
24-Nov-20 12:40 34.198980 -118.363901 276 779ft 18kts
24-Nov-20 12:41 34.198848 -118.368945 203 779ft 0kts
24-Nov-20 12:42 34.198848 -118.368945 203 779ft 0kts
24-Nov-20 12:43 34.198848 -118.368945 203 779ft 0kts
24-Nov-20 12:44 34.198701 -118.369000 186 779ft 13kts
24-Nov-20 12:45 34.195957 -118.341624 120 1599ft 168kts
24-Nov-20 12:46 34.154320 -118.355912 224 4145ft 203kts
24-Nov-20 12:47 34.139276 -118.411995 323 7231ft 211kts
24-Nov-20 12:47 34.189163 -118.425134 351 9575ft 231kts
24-Nov-20 12:48 34.250622 -118.436379 350 12938ft 220kts
24-Nov-20 12:49 34.313625 -118.447922 348 14989ft 250kts
24-Nov-20 12:50 34.388335 -118.445081 36 14998ft 308kts
24-Nov-20 12:51 34.441725 -118.367008 47 16572ft 287kts
24-Nov-20 12:52 34.488395 -118.292757 46 18538ft 270kts
24-Nov-20 12:53 34.532991 -118.221595 46 20171ft 268kts
24-Nov-20 12:54 34.578578 -118.148670 46 21109ft 282kts
24-Nov-20 12:55 34.627824 -118.067339 61 21094ft 318kts
24-Nov-20 12:56 34.643107 -117.957324 77 21109ft 336kts
24-Nov-20 12:57 34.655473 -117.843848 77 21109ft 340kts
24-Nov-20 12:58 34.672392 -117.732028 67 21204ft 335kts
24-Nov-20 12:59 34.700061 -117.623681 66 21208ft 336kts
24-Nov-20 13:00 34.727871 -117.514849 67 21210ft 337kts
24-Nov-20 13:01 34.755615 -117.405829 67 21210ft 337kts
24-Nov-20 13:02 34.783398 -117.296196 67 21133ft 339kts
24-Nov-20 13:03 34.811030 -117.186693 67 21147ft 338kts
24-Nov-20 13:04 34.838422 -117.077695 67 21162ft 337kts
24-Nov-20 13:05 34.865855 -116.968063 67 21177ft 338kts
24-Nov-20 13:06 34.893128 -116.858615 67 21180ft 339kts
24-Nov-20 13:07 34.920356 -116.748865 67 21181ft 339kts
24-Nov-20 13:08 34.947616 -116.638531 67 21181ft 340kts
24-Nov-20 13:09 34.982519 -116.533326 55 21182ft 333kts
24-Nov-20 13:10 35.026642 -116.433849 55 21181ft 333kts
24-Nov-20 13:11 35.070711 -116.334384 55 21177ft 333kts
24-Nov-20 13:12 35.114757 -116.234702 56 21183ft 333kts
24-Nov-20 13:13 35.158645 -116.135066 56 21185ft 334kts
24-Nov-20 13:14 35.203117 -116.033864 56 20501ft 352kts
24-Nov-20 13:15 35.250022 -115.926654 56 18525ft 359kts
24-Nov-20 13:16 35.295972 -115.821322 56 16534ft 342kts
24-Nov-20 13:17 35.351032 -115.733351 42 14541ft 317kts
24-Nov-20 13:18 35.409806 -115.654919 41 12551ft 309kts
24-Nov-20 13:19 35.465820 -115.580042 43 10870ft 286kts
24-Nov-20 13:20 35.518017 -115.510135 44 10018ft 270kts
24-Nov-20 13:21 35.568668 -115.442191 44 10019ft 271kts
24-Nov-20 13:22 35.627704 -115.390100 11 9403ft 262kts
24-Nov-20 13:23 35.697615 -115.372340 11 7685ft 238kts
24-Nov-20 13:24 35.753491 -115.358582 10 7006ft 179kts
24-Nov-20 13:25 35.807227 -115.345423 11 7021ft 214kts
24-Nov-20 13:26 35.864638 -115.331329 11 7014ft 205kts
24-Nov-20 13:27 35.917270 -115.304911 41 6675ft 204kts
24-Nov-20 13:28 35.958529 -115.259047 41 5422ft 199kts
24-Nov-20 13:29 35.998079 -115.214880 29 4016ft 163kts
24-Nov-20 13:30 36.035250 -115.193227 23 3228ft 130kts
24-Nov-20 13:31 36.068311 -115.174340 24 2480ft 109kts
24-Nov-20 13:32 36.086730 -115.163924 22 2135ft 47kts
24-Nov-20 13:33 36.089393 -115.163542 295 2128ft 0kts
24-Nov-20 13:34 36.089393 -115.163542 295 2128ft 0kts
24-Nov-20 13:35 36.088413 -115.165292 204 2137ft 21kts
24-Nov-20 13:36 36.083248 -115.168302 211 2159ft 17kts
24-Nov-20 13:37 36.080793 -115.170823 356 2169ft 0kts
24-Nov-20 13:38 36.080793 -115.170823 355 2169ft 0kts
24-Nov-20 13:39 36.080793 -115.170823 355 2169ft 0kts
24-Nov-20 13:40 36.080793 -115.170823 355 2169ft 0kts
24-Nov-20 13:41 36.080793 -115.170823 355 2169ft 0kts
24-Nov-20 13:42 36.080793 -115.170823 355 2169ft 0kts
24-Nov-20 13:43 36.080793 -115.170823 355 2169ft 0kts
24-Nov-20 13:44 36.080793 -115.170823 355 2169ft 0kts
24-Nov-20 13:45 36.080793 -115.170823 355 2169ft 0kts
24-Nov-20 13:46 36.080793 -115.170823 355 2169ft 0kts
24-Nov-20 13:47 36.080793 -115.170823 355 2169ft 0kts

Navigation Log

Ident Type
Flight plan parsing failed, navigation log unavailable